createdAt,value
2023-04-13T00:00:23.844Z,7.01
2023-04-13T00:02:56.294Z,7.01
2023-04-13T00:05:24.634Z,7.01
2023-04-13T00:07:53.734Z,7.09
2023-04-13T00:10:23.858Z,7.11
2023-04-13T00:12:52.048Z,7.06
2023-04-13T00:15:19.918Z,7.07
2023-04-13T00:17:48.189Z,7.08
2023-04-13T00:20:17.822Z,7.12
2023-04-13T00:22:47.852Z,7.17
2023-04-13T00:25:16.814Z,7.14
2023-04-13T00:27:44.830Z,7.14
2023-04-13T00:30:15.655Z,7.21
2023-04-13T00:32:45.597Z,7.20
2023-04-13T00:35:19.384Z,7.18
2023-04-13T00:37:47.358Z,7.20
2023-04-13T00:40:18.018Z,7.33
2023-04-13T00:42:47.338Z,7.36
2023-04-13T00:45:18.155Z,7.45
2023-04-13T00:47:50.655Z,7.52
2023-04-13T00:50:21.316Z,7.53
2023-04-13T00:52:49.810Z,7.60
2023-04-13T00:55:21.639Z,7.74
2023-04-13T00:57:50.162Z,7.78
2023-04-13T01:00:19.240Z,7.72
2023-04-13T01:02:47.761Z,7.90
2023-04-13T01:05:16.839Z,7.84
2023-04-13T01:07:59.481Z,7.84
2023-04-13T01:10:35.772Z,7.86
2023-04-13T01:13:20.401Z,7.80
2023-04-13T01:16:03.669Z,7.85
2023-04-13T01:18:40.212Z,7.93
2023-04-13T01:21:17.239Z,7.89
2023-04-13T01:24:03.631Z,7.89
2023-04-13T01:26:43.881Z,7.84
2023-04-13T01:29:14.124Z,7.86
2023-04-13T01:31:43.271Z,7.75
2023-04-13T01:34:11.399Z,7.77
2023-04-13T01:36:49.898Z,7.65
2023-04-13T01:39:19.766Z,7.57
2023-04-13T01:41:49.107Z,7.53
2023-04-13T01:44:21.058Z,7.55
2023-04-13T01:47:01.894Z,7.51
2023-04-13T01:49:56.781Z,7.51
2023-04-13T01:52:35.707Z,7.53
2023-04-13T01:55:07.328Z,7.59
2023-04-13T01:57:40.894Z,7.52
2023-04-13T02:00:14.318Z,7.48
2023-04-13T02:02:45.387Z,7.52
2023-04-13T02:05:13.494Z,7.43
2023-04-13T02:07:44.667Z,7.48
2023-04-13T02:10:13.508Z,7.47
2023-04-13T02:12:41.685Z,7.48
2023-04-13T02:15:12.388Z,7.52
2023-04-13T02:17:41.188Z,7.53
2023-04-13T02:20:13.569Z,7.58
2023-04-13T02:22:41.592Z,7.53
2023-04-13T02:25:13.261Z,7.55
2023-04-13T02:27:41.977Z,7.66
2023-04-13T02:30:12.792Z,7.64
2023-04-13T02:32:41.780Z,7.73
2023-04-13T02:35:13.934Z,7.70
2023-04-13T02:37:41.894Z,7.79
2023-04-13T02:40:13.586Z,7.91
2023-04-13T02:42:42.091Z,7.92
2023-04-13T02:45:13.372Z,7.97
2023-04-13T02:47:42.678Z,7.92
2023-04-13T02:50:12.618Z,7.92
2023-04-13T02:52:46.812Z,8.01
2023-04-13T02:55:15.148Z,8.09
2023-04-13T02:57:54.457Z,8.04
2023-04-13T03:00:25.760Z,7.99
2023-04-13T03:02:59.328Z,7.96
2023-04-13T03:05:35.754Z,7.95
2023-04-13T03:08:05.375Z,7.93
2023-04-13T03:10:37.315Z,8.00
2023-04-13T03:13:07.383Z,7.90
2023-04-13T03:15:36.771Z,7.84
2023-04-13T03:18:05.164Z,7.83
2023-04-13T03:20:34.653Z,7.81
2023-04-13T03:23:04.463Z,7.81
2023-04-13T03:25:36.502Z,7.76
2023-04-13T03:28:05.397Z,7.83
2023-04-13T03:30:39.882Z,7.85
2023-04-13T03:33:07.655Z,7.87
2023-04-13T03:35:38.003Z,7.77
2023-04-13T03:38:11.489Z,7.77
2023-04-13T03:40:44.495Z,7.83
2023-04-13T03:43:12.590Z,7.84
2023-04-13T03:45:47.304Z,7.76
2023-04-13T03:48:17.438Z,7.81
2023-04-13T03:50:45.432Z,7.82
2023-04-13T03:53:15.728Z,7.82
2023-04-13T03:55:46.680Z,7.85
2023-04-13T03:58:14.885Z,7.85
2023-04-13T04:00:42.719Z,7.85
2023-04-13T04:03:24.300Z,7.92
2023-04-13T04:05:58.440Z,7.96
2023-04-13T04:08:28.989Z,7.90
2023-04-13T04:11:01.515Z,7.84
2023-04-13T04:13:31.202Z,7.92
2023-04-13T04:16:04.477Z,7.85
2023-04-13T04:18:36.139Z,7.92
2023-04-13T04:21:04.562Z,8.00
2023-04-13T04:23:34.555Z,7.95
2023-04-13T04:26:07.460Z,8.00
2023-04-13T04:28:45.828Z,8.00
2023-04-13T04:31:18.833Z,8.03
2023-04-13T04:33:52.380Z,8.11
2023-04-13T04:36:24.124Z,8.02
2023-04-13T04:39:02.111Z,8.04
2023-04-13T04:41:37.270Z,8.11
2023-04-13T04:44:08.756Z,8.13
2023-04-13T04:46:41.550Z,8.08
2023-04-13T04:49:14.685Z,8.06
2023-04-13T04:51:43.052Z,8.07
2023-04-13T04:54:16.717Z,8.01
2023-04-13T04:56:47.951Z,8.03
2023-04-13T04:59:20.778Z,8.07
2023-04-13T05:01:58.793Z,8.04
2023-04-13T05:04:27.965Z,7.99
2023-04-13T05:06:55.705Z,8.07
2023-04-13T05:09:26.642Z,8.12
2023-04-13T05:11:57.955Z,8.09
2023-04-13T05:14:25.834Z,8.11
2023-04-13T05:16:53.846Z,8.14
2023-04-13T05:19:42.929Z,8.18
2023-04-13T05:22:37.966Z,8.16
2023-04-13T05:25:09.504Z,8.30
2023-04-13T05:27:37.973Z,8.35
2023-04-13T05:30:08.832Z,8.37
2023-04-13T05:32:39.462Z,8.38
2023-04-13T05:35:10.327Z,8.39
2023-04-13T05:37:39.873Z,8.39
2023-04-13T05:40:14.612Z,8.36
2023-04-13T05:42:43.579Z,8.51
2023-04-13T05:45:17.015Z,8.59
2023-04-13T05:47:59.570Z,8.71
2023-04-13T05:50:29.089Z,8.81
2023-04-13T05:52:59.965Z,8.81
2023-04-13T05:55:32.999Z,8.87
2023-04-13T05:58:04.026Z,8.90
2023-04-13T06:00:32.704Z,8.94
2023-04-13T06:03:07.405Z,8.86
2023-04-13T06:05:37.480Z,8.86
2023-04-13T06:08:05.383Z,8.80
2023-04-13T06:10:33.245Z,8.91
2023-04-13T06:13:00.999Z,8.90
2023-04-13T06:15:28.918Z,8.83
2023-04-13T06:17:57.089Z,8.69
2023-04-13T06:20:24.968Z,8.85
2023-04-13T06:22:54.100Z,9.05
2023-04-13T06:25:23.180Z,9.10
2023-04-13T06:27:51.144Z,9.11
2023-04-13T06:30:20.849Z,9.05
2023-04-13T06:32:52.578Z,9.09
2023-04-13T06:35:24.084Z,9.15
2023-04-13T06:37:51.953Z,9.27
2023-04-13T06:40:27.692Z,9.45
2023-04-13T06:43:03.824Z,9.41
2023-04-13T06:45:42.380Z,9.52
2023-04-13T06:48:17.903Z,9.71
2023-04-13T06:50:47.637Z,10.09
2023-04-13T06:53:15.399Z,10.09
2023-04-13T06:55:45.184Z,10.16
2023-04-13T06:58:13.233Z,10.21
2023-04-13T07:00:41.386Z,10.17
2023-04-13T07:03:09.504Z,10.26
2023-04-13T07:05:38.961Z,10.50
2023-04-13T07:08:13.043Z,10.64
2023-04-13T07:10:44.715Z,10.77
2023-04-13T07:13:24.890Z,10.76
2023-04-13T07:15:52.819Z,10.87
2023-04-13T07:18:20.771Z,10.94
2023-04-13T07:20:50.184Z,10.95
2023-04-13T07:23:20.690Z,10.84
2023-04-13T07:25:49.994Z,10.97
2023-04-13T07:28:22.804Z,11.08
2023-04-13T07:30:52.846Z,11.23
2023-04-13T07:33:20.792Z,11.52
2023-04-13T07:35:54.620Z,11.57
2023-04-13T07:38:25.756Z,11.82
2023-04-13T07:40:55.420Z,11.98
2023-04-13T07:43:25.083Z,11.82
2023-04-13T07:45:54.364Z,11.79
2023-04-13T07:48:22.198Z,12.01
2023-04-13T07:50:50.123Z,11.98
2023-04-13T07:53:22.002Z,11.86
2023-04-13T07:55:49.931Z,12.08
2023-04-13T07:58:19.129Z,12.18
2023-04-13T08:00:49.247Z,12.21
2023-04-13T08:03:17.920Z,12.10
2023-04-13T08:05:50.189Z,12.02
2023-04-13T08:08:18.084Z,11.96
2023-04-13T08:10:46.883Z,11.83
2023-04-13T08:13:16.536Z,11.76
2023-04-13T08:15:46.477Z,11.74
2023-04-13T08:18:14.386Z,11.47
2023-04-13T08:20:42.545Z,11.29
2023-04-13T08:23:12.480Z,11.13
2023-04-13T08:25:41.721Z,10.92
2023-04-13T08:28:09.654Z,10.97
2023-04-13T08:30:37.852Z,10.87
2023-04-13T08:33:07.515Z,11.01
2023-04-13T08:35:39.148Z,10.97
2023-04-13T08:38:09.053Z,10.86
2023-04-13T08:40:40.364Z,10.78
2023-04-13T08:43:13.477Z,10.67
2023-04-13T08:45:44.488Z,10.57
2023-04-13T08:48:15.665Z,10.57
2023-04-13T08:50:46.079Z,10.48
2023-04-13T08:53:18.174Z,10.47
2023-04-13T08:55:50.305Z,10.31
2023-04-13T08:58:24.391Z,10.19
2023-04-13T09:00:53.024Z,10.29
2023-04-13T09:03:29.503Z,10.47
2023-04-13T09:06:03.851Z,10.93
2023-04-13T09:08:36.596Z,11.48
2023-04-13T09:11:09.088Z,11.76
2023-04-13T09:13:37.038Z,12.06
2023-04-13T09:16:06.428Z,11.99
2023-04-13T09:18:53.255Z,11.49
2023-04-13T09:21:22.375Z,11.22
2023-04-13T09:23:54.833Z,11.02
2023-04-13T09:26:22.899Z,10.68
2023-04-13T09:28:56.128Z,10.36
2023-04-13T09:31:24.435Z,10.51
2023-04-13T09:33:53.662Z,10.46
2023-04-13T09:36:22.655Z,10.27
2023-04-13T09:38:53.204Z,10.21
2023-04-13T09:41:32.601Z,10.21
2023-04-13T09:44:01.366Z,10.33
2023-04-13T09:46:29.573Z,10.43
2023-04-13T09:49:04.776Z,10.52
2023-04-13T09:51:37.644Z,10.73
2023-04-13T09:54:06.474Z,11.01
2023-04-13T09:56:46.909Z,11.12
2023-04-13T09:59:14.945Z,11.37
2023-04-13T10:01:43.703Z,11.20
2023-04-13T10:04:13.512Z,11.43
2023-04-13T10:06:46.926Z,11.38
2023-04-13T10:09:15.683Z,11.54
2023-04-13T10:11:46.746Z,11.80
2023-04-13T10:14:19.743Z,11.89
2023-04-13T10:17:12.740Z,11.93
2023-04-13T10:19:48.365Z,11.86
2023-04-13T10:22:17.535Z,12.18
2023-04-13T10:24:45.919Z,12.31
2023-04-13T10:27:16.904Z,12.43
2023-04-13T10:29:47.156Z,12.48
2023-04-13T10:32:23.074Z,12.95
2023-04-13T10:34:54.120Z,13.20
2023-04-13T10:37:24.412Z,13.42
2023-04-13T10:40:05.555Z,13.67
2023-04-13T10:42:51.768Z,13.97
2023-04-13T10:45:26.685Z,13.87
2023-04-13T10:47:56.259Z,13.89
2023-04-13T10:50:29.266Z,13.46
2023-04-13T10:53:04.094Z,13.49
2023-04-13T10:55:32.757Z,13.27
2023-04-13T10:58:13.773Z,13.06
2023-04-13T11:00:47.101Z,12.60
2023-04-13T11:03:17.248Z,12.13
2023-04-13T11:05:48.393Z,11.39
2023-04-13T11:08:20.835Z,10.76
2023-04-13T11:10:54.297Z,10.25
2023-04-13T11:13:25.402Z,10.08
2023-04-13T11:16:01.982Z,10.02
2023-04-13T11:18:29.880Z,10.16
2023-04-13T11:20:59.210Z,10.18
2023-04-13T11:23:27.523Z,10.43
2023-04-13T11:25:59.785Z,10.46
2023-04-13T11:28:39.334Z,10.79
2023-04-13T11:31:11.541Z,11.12
2023-04-13T11:33:40.992Z,11.43
2023-04-13T11:36:11.778Z,11.66
2023-04-13T11:38:40.895Z,11.71
2023-04-13T11:41:16.432Z,11.84
2023-04-13T11:43:48.807Z,12.07
2023-04-13T11:46:24.832Z,12.12
2023-04-13T11:48:53.466Z,12.51
2023-04-13T11:51:24.404Z,12.78
2023-04-13T11:53:53.228Z,12.78
2023-04-13T11:56:21.677Z,13.19
2023-04-13T11:58:51.527Z,13.39
2023-04-13T12:01:26.146Z,13.92
2023-04-13T12:04:12.847Z,14.77
2023-04-13T12:06:50.059Z,14.50
2023-04-13T12:09:21.273Z,14.45
2023-04-13T12:12:07.897Z,14.01
2023-04-13T12:17:37.638Z,13.80
2023-04-13T12:20:04.784Z,13.82
2023-04-13T12:22:50.796Z,13.95
2023-04-13T12:25:24.388Z,13.68
2023-04-13T12:27:53.805Z,13.79
2023-04-13T12:30:22.898Z,13.56
2023-04-13T12:32:53.517Z,14.07
2023-04-13T12:35:21.764Z,14.95
2023-04-13T12:37:52.404Z,15.15
2023-04-13T12:40:20.377Z,15.14
2023-04-13T12:42:49.197Z,14.77
2023-04-13T12:45:17.441Z,14.61
2023-04-13T12:47:45.274Z,14.40
2023-04-13T12:50:13.562Z,14.05
2023-04-13T12:52:43.099Z,13.61
2023-04-13T12:55:12.338Z,12.91
2023-04-13T12:57:40.192Z,12.51
2023-04-13T13:00:10.856Z,12.51
2023-04-13T13:02:39.136Z,12.84
2023-04-13T13:05:09.300Z,14.03
2023-04-13T13:07:37.265Z,14.91
2023-04-13T13:10:14.904Z,15.35
2023-04-13T13:12:55.861Z,16.20
2023-04-13T13:15:23.730Z,16.29
2023-04-13T13:17:51.515Z,16.16
2023-04-13T13:20:19.362Z,16.44
2023-04-13T13:22:47.405Z,16.42
2023-04-13T13:25:16.252Z,16.42
2023-04-13T13:30:16.668Z,16.28
2023-04-13T13:32:44.780Z,15.98
2023-04-13T13:35:14.860Z,15.51
2023-04-13T13:37:42.728Z,15.76
2023-04-13T13:40:13.290Z,16.31
2023-04-13T13:42:51.430Z,16.19
2023-04-13T13:45:22.351Z,16.00
2023-04-13T13:47:54.442Z,16.18
2023-04-13T13:50:30.488Z,16.87
2023-04-13T13:53:04.475Z,16.67
2023-04-13T13:55:41.370Z,17.12
2023-04-13T13:58:09.180Z,17.22
2023-04-13T14:00:38.332Z,16.46
2023-04-13T14:03:06.593Z,16.28
2023-04-13T14:05:34.529Z,16.75
2023-04-13T14:08:02.525Z,16.70
2023-04-13T14:10:30.521Z,17.31
2023-04-13T14:12:59.540Z,17.34
2023-04-13T14:15:27.674Z,17.80
2023-04-13T14:18:09.735Z,18.04
2023-04-13T14:20:39.735Z,17.70
2023-04-13T14:23:09.330Z,17.22
2023-04-13T14:25:41.531Z,17.41
2023-04-13T14:28:09.621Z,18.08
2023-04-13T14:30:38.734Z,18.17
2023-04-13T14:33:08.255Z,17.96
2023-04-13T14:35:36.416Z,18.43
2023-04-13T14:38:04.146Z,17.62
2023-04-13T14:40:32.587Z,17.57
2023-04-13T14:43:00.765Z,17.06
2023-04-13T14:45:28.600Z,17.03
2023-04-13T14:47:56.472Z,16.69
2023-04-13T14:50:25.893Z,16.16
2023-04-13T14:52:53.651Z,15.85
2023-04-13T14:55:22.702Z,15.78
2023-04-13T14:57:51.349Z,15.60
2023-04-13T15:00:26.277Z,15.89
2023-04-13T15:02:55.327Z,16.34
2023-04-13T15:05:25.141Z,16.68
2023-04-13T15:07:53.003Z,16.47
2023-04-13T15:10:21.360Z,17.19
2023-04-13T15:12:49.240Z,17.65
2023-04-13T15:15:17.393Z,17.10
2023-04-13T15:17:45.563Z,17.73
2023-04-13T15:20:13.298Z,17.61
2023-04-13T15:22:42.561Z,17.64
2023-04-13T15:25:10.945Z,17.68
2023-04-13T15:27:38.730Z,16.78
2023-04-13T15:30:09.976Z,16.32
2023-04-13T15:32:37.892Z,16.14
2023-04-13T15:35:06.393Z,15.84
2023-04-13T15:37:34.279Z,15.90
2023-04-13T15:40:07.659Z,15.94
2023-04-13T15:42:36.108Z,16.40
2023-04-13T15:45:05.412Z,16.70
2023-04-13T15:47:33.259Z,16.63
2023-04-13T15:50:01.214Z,16.81
2023-04-13T15:52:29.288Z,16.79
2023-04-13T15:54:57.214Z,17.07
2023-04-13T15:57:26.603Z,17.16
2023-04-13T15:59:56.542Z,17.01
2023-04-13T16:02:24.622Z,17.13
2023-04-13T16:04:53.844Z,16.63
2023-04-13T16:07:21.801Z,16.99
2023-04-13T16:09:56.274Z,17.09
2023-04-13T16:12:31.914Z,17.28
2023-04-13T16:15:00.250Z,17.21
2023-04-13T16:17:32.252Z,17.17
2023-04-13T16:20:13.997Z,17.15
2023-04-13T16:22:46.920Z,17.09
2023-04-13T16:25:15.966Z,16.65
2023-04-13T16:27:48.275Z,16.88
2023-04-13T16:30:20.807Z,16.76
2023-04-13T16:32:50.503Z,16.63
2023-04-13T16:35:18.673Z,15.96
2023-04-13T16:37:46.649Z,15.69
2023-04-13T16:40:15.244Z,15.44
2023-04-13T16:42:50.379Z,15.57
2023-04-13T16:45:22.566Z,15.87
2023-04-13T16:47:53.091Z,16.00
2023-04-13T16:50:21.198Z,16.23
2023-04-13T16:52:48.995Z,16.39
2023-04-13T16:55:17.592Z,16.21
2023-04-13T16:57:45.626Z,16.41
2023-04-13T17:00:16.122Z,16.41
2023-04-13T17:02:44.282Z,16.48
2023-04-13T17:05:13.368Z,16.46
2023-04-13T17:07:43.684Z,16.10
2023-04-13T17:10:14.214Z,15.68
2023-04-13T17:12:42.227Z,15.77
2023-04-13T17:15:10.662Z,15.71
2023-04-13T17:17:39.991Z,15.64
2023-04-13T17:20:09.258Z,15.18
2023-04-13T17:22:37.846Z,15.10
2023-04-13T17:25:07.100Z,14.97
2023-04-13T17:27:34.915Z,14.60
2023-04-13T17:30:03.602Z,14.85
2023-04-13T17:32:33.174Z,14.82
2023-04-13T17:35:02.803Z,14.53
2023-04-13T17:37:31.036Z,14.31
2023-04-13T17:39:59.953Z,14.23
2023-04-13T17:42:28.358Z,14.30
2023-04-13T17:44:56.195Z,14.40
2023-04-13T17:47:24.998Z,14.31
2023-04-13T17:49:53.334Z,14.37
2023-04-13T17:52:22.484Z,14.27
2023-04-13T17:54:50.225Z,14.21
2023-04-13T17:57:18.118Z,14.20
2023-04-13T17:59:47.040Z,14.12
2023-04-13T18:02:14.990Z,14.08
2023-04-13T18:04:42.837Z,14.05
2023-04-13T18:07:10.930Z,13.96
2023-04-13T18:09:40.237Z,13.95
2023-04-13T18:12:08.106Z,13.92
2023-04-13T18:14:36.242Z,13.86
2023-04-13T18:17:04.742Z,13.74
2023-04-13T18:19:32.674Z,13.59
2023-04-13T18:22:00.845Z,13.49
2023-04-13T18:24:28.629Z,13.36
2023-04-13T18:26:57.744Z,13.10
2023-04-13T18:29:25.661Z,12.96
2023-04-13T18:31:53.504Z,12.76
2023-04-13T18:34:21.609Z,12.49
2023-04-13T18:36:49.483Z,12.48
2023-04-13T18:39:17.416Z,12.39
2023-04-13T18:41:45.958Z,12.26
2023-04-13T18:44:15.367Z,12.14
2023-04-13T18:46:43.203Z,12.08
2023-04-13T18:49:11.076Z,12.02
2023-04-13T18:51:38.836Z,11.91
2023-04-13T18:54:06.724Z,11.84
2023-04-13T18:56:34.525Z,11.77
2023-04-13T18:59:02.283Z,11.70
2023-04-13T19:01:31.910Z,11.55
2023-04-13T19:04:00.283Z,11.50
2023-04-13T19:06:28.344Z,11.50
2023-04-13T19:08:56.258Z,11.47
2023-04-13T19:11:27.288Z,11.39
2023-04-13T19:13:55.219Z,11.34
2023-04-13T19:16:23.605Z,11.34
2023-04-13T19:18:52.943Z,11.29
2023-04-13T19:21:23.798Z,11.22
2023-04-13T19:23:51.807Z,11.15
2023-04-13T19:26:19.663Z,11.12
2023-04-13T19:28:48.194Z,11.07
2023-04-13T19:31:16.758Z,11.03
2023-04-13T19:33:46.175Z,10.93
2023-04-13T19:36:15.662Z,10.85
2023-04-13T19:38:45.003Z,10.82
2023-04-13T19:41:13.477Z,10.78
2023-04-13T19:43:41.262Z,10.73
2023-04-13T19:46:09.218Z,10.69
2023-04-13T19:48:37.406Z,10.65
2023-04-13T19:51:05.287Z,10.57
2023-04-13T19:53:36.198Z,10.42
2023-04-13T19:56:05.476Z,10.32
2023-04-13T19:58:33.633Z,10.30
2023-04-13T20:01:02.031Z,10.25
2023-04-13T20:03:31.632Z,10.25
2023-04-13T20:05:59.649Z,10.21
2023-04-13T20:08:27.466Z,10.14
2023-04-13T20:10:59.765Z,10.08
2023-04-13T20:13:28.014Z,10.02
2023-04-13T20:15:55.890Z,9.98
2023-04-13T20:18:23.700Z,9.91
2023-04-13T20:20:52.379Z,9.86
2023-04-13T20:23:20.451Z,9.82
2023-04-13T20:25:48.308Z,9.80
2023-04-13T20:28:17.766Z,9.81
2023-04-13T20:30:45.641Z,9.79
2023-04-13T20:33:13.529Z,9.79
2023-04-13T20:35:41.943Z,9.74
2023-04-13T20:38:10.093Z,9.66
2023-04-13T20:40:38.051Z,9.61
2023-04-13T20:43:06.344Z,9.55
2023-04-13T20:45:36.259Z,9.50
2023-04-13T20:50:36.379Z,9.34
2023-04-13T20:53:05.306Z,9.32
2023-04-13T20:55:33.363Z,9.27
2023-04-13T20:58:01.233Z,9.25
2023-04-13T21:00:29.317Z,9.19
2023-04-13T21:02:58.729Z,9.13
2023-04-13T21:05:26.975Z,9.10
2023-04-13T21:07:56.968Z,9.09
2023-04-13T21:10:25.516Z,9.08
2023-04-13T21:12:53.328Z,9.07
2023-04-13T21:15:21.271Z,9.08
2023-04-13T21:17:49.241Z,9.03
2023-04-13T21:20:18.635Z,8.75
2023-04-13T21:22:46.464Z,8.61
2023-04-13T21:25:14.317Z,8.60
2023-04-13T21:27:42.078Z,8.51
2023-04-13T21:30:10.882Z,8.51
2023-04-13T21:32:38.898Z,8.44
2023-04-13T21:35:08.552Z,8.34
2023-04-13T21:37:37.666Z,8.28
2023-04-13T21:40:07.090Z,8.23
2023-04-13T21:42:34.911Z,8.18
2023-04-13T21:45:03.576Z,8.06
2023-04-13T21:47:31.843Z,7.94
2023-04-13T21:49:59.624Z,7.89
2023-04-13T21:52:28.939Z,7.91
2023-04-13T21:54:59.776Z,7.90
2023-04-13T21:57:27.777Z,7.91
2023-04-13T21:59:56.237Z,7.85
2023-04-13T22:02:24.909Z,7.74
2023-04-13T22:04:52.776Z,7.74
2023-04-13T22:07:28.429Z,7.75
2023-04-13T22:10:05.765Z,7.76
2023-04-13T22:12:35.686Z,7.79
2023-04-13T22:15:04.132Z,7.80
2023-04-13T22:17:32.226Z,7.80
2023-04-13T22:20:00.573Z,7.80
2023-04-13T22:22:30.819Z,7.85
2023-04-13T22:24:58.671Z,7.91
2023-04-13T22:27:27.856Z,8.01
2023-04-13T22:29:55.745Z,8.09
2023-04-13T22:32:23.765Z,8.16
2023-04-13T22:34:51.529Z,8.26
2023-04-13T22:37:19.357Z,8.33
2023-04-13T22:39:47.112Z,8.36
2023-04-13T22:42:16.808Z,8.42
2023-04-13T22:44:45.925Z,8.47
2023-04-13T22:47:13.757Z,8.53
2023-04-13T22:49:41.464Z,8.55
2023-04-13T22:52:09.247Z,8.50
2023-04-13T22:54:37.141Z,8.42
2023-04-13T22:57:05.399Z,8.33
2023-04-13T22:59:33.337Z,8.29
2023-04-13T23:02:03.753Z,8.27
2023-04-13T23:04:31.875Z,8.17
2023-04-13T23:06:59.878Z,7.79
2023-04-13T23:09:27.862Z,7.43
2023-04-13T23:11:56.125Z,7.12
2023-04-13T23:14:24.423Z,7.07
2023-04-13T23:16:52.232Z,7.01
2023-04-13T23:19:21.519Z,6.88
2023-04-13T23:21:49.223Z,6.91
2023-04-13T23:24:17.140Z,6.99
2023-04-13T23:26:44.879Z,6.95
2023-04-13T23:29:12.777Z,6.88
2023-04-13T23:31:41.053Z,6.75
2023-04-13T23:34:08.891Z,6.79
2023-04-13T23:36:38.138Z,6.82
2023-04-13T23:39:06.176Z,6.94
2023-04-13T23:41:33.960Z,7.08
2023-04-13T23:44:02.004Z,7.28
2023-04-13T23:46:30.391Z,7.42
2023-04-13T23:48:58.407Z,7.38
2023-04-13T23:51:26.353Z,7.44
2023-04-13T23:53:55.580Z,7.42
2023-04-13T23:56:23.330Z,7.38
2023-04-13T23:58:51.195Z,7.19
